sensor_id;sensor_type;location;lat;lon;timestamp;P1;durP1;ratioP1;P2;durP2;ratioP2
28766;SDS011;15921;52.034;20.650;2023-08-06T00:00:16;13.07;;;7.35;;
28766;SDS011;15921;52.034;20.650;2023-08-06T00:02:41;19.92;;;8.10;;
28766;SDS011;15921;52.034;20.650;2023-08-06T00:05:07;12.80;;;7.57;;
28766;SDS011;15921;52.034;20.650;2023-08-06T00:07:33;12.70;;;8.55;;
28766;SDS011;15921;52.034;20.650;2023-08-06T00:09:58;13.07;;;8.02;;
28766;SDS011;15921;52.034;20.650;2023-08-06T00:12:24;19.13;;;9.20;;
28766;SDS011;15921;52.034;20.650;2023-08-06T00:14:50;15.60;;;8.40;;
28766;SDS011;15921;52.034;20.650;2023-08-06T00:17:16;13.70;;;8.82;;
28766;SDS011;15921;52.034;20.650;2023-08-06T00:19:42;13.32;;;8.07;;
28766;SDS011;15921;52.034;20.650;2023-08-06T00:22:08;16.30;;;8.73;;
28766;SDS011;15921;52.034;20.650;2023-08-06T00:24:34;14.93;;;8.50;;
28766;SDS011;15921;52.034;20.650;2023-08-06T00:27:00;11.02;;;7.25;;
28766;SDS011;15921;52.034;20.650;2023-08-06T00:29:26;16.15;;;8.68;;
28766;SDS011;15921;52.034;20.650;2023-08-06T00:31:51;15.38;;;7.53;;
28766;SDS011;15921;52.034;20.650;2023-08-06T00:34:17;15.13;;;8.07;;
28766;SDS011;15921;52.034;20.650;2023-08-06T00:36:43;13.93;;;8.35;;
28766;SDS011;15921;52.034;20.650;2023-08-06T00:39:08;19.05;;;8.23;;
28766;SDS011;15921;52.034;20.650;2023-08-06T00:41:34;13.23;;;7.93;;
28766;SDS011;15921;52.034;20.650;2023-08-06T00:44:00;16.67;;;9.82;;
28766;SDS011;15921;52.034;20.650;2023-08-06T00:46:26;17.55;;;8.65;;
28766;SDS011;15921;52.034;20.650;2023-08-06T00:48:52;19.50;;;9.73;;
28766;SDS011;15921;52.034;20.650;2023-08-06T00:51:18;17.08;;;9.30;;
28766;SDS011;15921;52.034;20.650;2023-08-06T00:53:45;18.33;;;9.90;;
28766;SDS011;15921;52.034;20.650;2023-08-06T00:56:11;17.85;;;10.32;;
28766;SDS011;15921;52.034;20.650;2023-08-06T00:58:38;23.05;;;10.93;;
28766;SDS011;15921;52.034;20.650;2023-08-06T01:01:04;24.55;;;10.93;;
28766;SDS011;15921;52.034;20.650;2023-08-06T01:03:30;30.58;;;11.38;;
28766;SDS011;15921;52.034;20.650;2023-08-06T01:05:56;27.23;;;12.55;;
28766;SDS011;15921;52.034;20.650;2023-08-06T01:14:06;27.58;;;13.15;;
28766;SDS011;15921;52.034;20.650;2023-08-06T01:16:40;33.05;;;15.95;;
28766;SDS011;15921;52.034;20.650;2023-08-06T01:19:15;30.38;;;14.70;;
28766;SDS011;15921;52.034;20.650;2023-08-06T01:21:44;36.33;;;15.90;;
28766;SDS011;15921;52.034;20.650;2023-08-06T01:24:10;35.33;;;17.58;;
28766;SDS011;15921;52.034;20.650;2023-08-06T01:29:18;31.50;;;15.23;;
28766;SDS011;15921;52.034;20.650;2023-08-06T01:31:50;33.10;;;15.45;;
28766;SDS011;15921;52.034;20.650;2023-08-06T01:34:20;34.88;;;16.33;;
28766;SDS011;15921;52.034;20.650;2023-08-06T01:36:47;37.88;;;15.88;;
28766;SDS011;15921;52.034;20.650;2023-08-06T01:39:13;32.83;;;14.75;;
28766;SDS011;15921;52.034;20.650;2023-08-06T01:41:39;35.00;;;16.80;;
28766;SDS011;15921;52.034;20.650;2023-08-06T01:44:04;28.75;;;15.52;;
28766;SDS011;15921;52.034;20.650;2023-08-06T01:46:30;35.95;;;17.90;;
28766;SDS011;15921;52.034;20.650;2023-08-06T01:48:56;31.02;;;16.60;;
28766;SDS011;15921;52.034;20.650;2023-08-06T01:51:22;25.75;;;14.45;;
28766;SDS011;15921;52.034;20.650;2023-08-06T01:53:47;32.10;;;15.00;;
28766;SDS011;15921;52.034;20.650;2023-08-06T01:56:13;37.05;;;16.20;;
28766;SDS011;15921;52.034;20.650;2023-08-06T01:58:39;30.38;;;16.02;;
28766;SDS011;15921;52.034;20.650;2023-08-06T02:01:04;26.75;;;16.00;;
28766;SDS011;15921;52.034;20.650;2023-08-06T02:03:30;25.08;;;13.77;;
28766;SDS011;15921;52.034;20.650;2023-08-06T02:05:56;29.70;;;15.25;;
28766;SDS011;15921;52.034;20.650;2023-08-06T02:08:21;30.17;;;16.50;;
28766;SDS011;15921;52.034;20.650;2023-08-06T02:10:47;24.25;;;13.20;;
28766;SDS011;15921;52.034;20.650;2023-08-06T02:13:13;25.42;;;12.35;;
28766;SDS011;15921;52.034;20.650;2023-08-06T02:15:42;32.60;;;16.15;;
28766;SDS011;15921;52.034;20.650;2023-08-06T02:18:09;30.30;;;15.10;;
28766;SDS011;15921;52.034;20.650;2023-08-06T02:20:35;22.67;;;13.23;;
28766;SDS011;15921;52.034;20.650;2023-08-06T02:23:00;27.00;;;15.20;;
28766;SDS011;15921;52.034;20.650;2023-08-06T02:25:26;21.30;;;12.40;;
28766;SDS011;15921;52.034;20.650;2023-08-06T02:27:51;25.15;;;14.98;;
28766;SDS011;15921;52.034;20.650;2023-08-06T02:30:17;31.27;;;15.68;;
28766;SDS011;15921;52.034;20.650;2023-08-06T02:32:43;23.73;;;14.20;;
28766;SDS011;15921;52.034;20.650;2023-08-06T02:35:09;28.15;;;16.10;;
28766;SDS011;15921;52.034;20.650;2023-08-06T02:37:35;28.75;;;16.90;;
28766;SDS011;15921;52.034;20.650;2023-08-06T02:40:00;25.77;;;15.10;;
28766;SDS011;15921;52.034;20.650;2023-08-06T02:42:27;25.48;;;13.60;;
28766;SDS011;15921;52.034;20.650;2023-08-06T02:44:52;29.05;;;16.70;;
28766;SDS011;15921;52.034;20.650;2023-08-06T02:47:21;27.38;;;15.70;;
28766;SDS011;15921;52.034;20.650;2023-08-06T02:49:47;26.83;;;15.88;;
28766;SDS011;15921;52.034;20.650;2023-08-06T02:52:13;32.88;;;17.90;;
28766;SDS011;15921;52.034;20.650;2023-08-06T02:54:38;30.75;;;18.00;;
28766;SDS011;15921;52.034;20.650;2023-08-06T02:57:04;32.08;;;17.42;;
28766;SDS011;15921;52.034;20.650;2023-08-06T02:59:31;35.15;;;17.02;;
28766;SDS011;15921;52.034;20.650;2023-08-06T03:01:57;30.17;;;15.70;;
28766;SDS011;15921;52.034;20.650;2023-08-06T03:04:22;25.80;;;16.02;;
28766;SDS011;15921;52.034;20.650;2023-08-06T03:06:51;29.92;;;16.48;;
28766;SDS011;15921;52.034;20.650;2023-08-06T03:09:17;29.20;;;17.95;;
28766;SDS011;15921;52.034;20.650;2023-08-06T03:11:43;34.72;;;16.55;;
28766;SDS011;15921;52.034;20.650;2023-08-06T03:14:09;31.50;;;17.63;;
28766;SDS011;15921;52.034;20.650;2023-08-06T03:16:35;32.20;;;17.85;;
28766;SDS011;15921;52.034;20.650;2023-08-06T04:06:11;31.55;;;18.25;;
28766;SDS011;15921;52.034;20.650;2023-08-06T04:08:37;32.53;;;18.30;;
28766;SDS011;15921;52.034;20.650;2023-08-06T04:11:03;32.67;;;18.02;;
28766;SDS011;15921;52.034;20.650;2023-08-06T04:13:29;26.95;;;16.35;;
28766;SDS011;15921;52.034;20.650;2023-08-06T04:15:54;35.22;;;18.60;;
28766;SDS011;15921;52.034;20.650;2023-08-06T04:18:20;30.35;;;17.95;;
28766;SDS011;15921;52.034;20.650;2023-08-06T04:20:46;37.80;;;19.50;;
28766;SDS011;15921;52.034;20.650;2023-08-06T04:23:14;26.83;;;17.05;;
28766;SDS011;15921;52.034;20.650;2023-08-06T04:25:40;28.45;;;18.55;;
28766;SDS011;15921;52.034;20.650;2023-08-06T04:28:06;30.13;;;17.27;;
28766;SDS011;15921;52.034;20.650;2023-08-06T04:30:32;28.83;;;18.40;;
28766;SDS011;15921;52.034;20.650;2023-08-06T04:32:58;41.63;;;20.58;;
28766;SDS011;15921;52.034;20.650;2023-08-06T04:35:24;30.55;;;16.58;;
28766;SDS011;15921;52.034;20.650;2023-08-06T04:37:49;26.67;;;17.55;;
28766;SDS011;15921;52.034;20.650;2023-08-06T04:40:15;38.60;;;19.90;;
28766;SDS011;15921;52.034;20.650;2023-08-06T04:42:41;31.05;;;19.23;;
28766;SDS011;15921;52.034;20.650;2023-08-06T04:45:07;32.13;;;19.48;;
28766;SDS011;15921;52.034;20.650;2023-08-06T04:47:33;32.22;;;19.25;;
28766;SDS011;15921;52.034;20.650;2023-08-06T04:49:58;33.80;;;21.48;;
28766;SDS011;15921;52.034;20.650;2023-08-06T04:52:24;28.90;;;19.02;;
28766;SDS011;15921;52.034;20.650;2023-08-06T04:54:53;34.25;;;22.00;;
28766;SDS011;15921;52.034;20.650;2023-08-06T04:57:19;32.05;;;21.67;;
28766;SDS011;15921;52.034;20.650;2023-08-06T04:59:45;32.53;;;21.52;;
28766;SDS011;15921;52.034;20.650;2023-08-06T05:02:10;27.10;;;17.83;;
28766;SDS011;15921;52.034;20.650;2023-08-06T05:04:36;25.73;;;18.77;;
28766;SDS011;15921;52.034;20.650;2023-08-06T05:07:02;29.25;;;19.42;;
28766;SDS011;15921;52.034;20.650;2023-08-06T05:09:28;25.83;;;16.98;;
28766;SDS011;15921;52.034;20.650;2023-08-06T05:11:54;30.98;;;19.63;;
28766;SDS011;15921;52.034;20.650;2023-08-06T05:14:20;27.67;;;17.40;;
28766;SDS011;15921;52.034;20.650;2023-08-06T05:16:45;29.40;;;18.10;;
28766;SDS011;15921;52.034;20.650;2023-08-06T05:19:11;28.92;;;18.00;;
28766;SDS011;15921;52.034;20.650;2023-08-06T05:21:36;26.65;;;17.85;;
28766;SDS011;15921;52.034;20.650;2023-08-06T05:24:02;24.85;;;18.45;;
28766;SDS011;15921;52.034;20.650;2023-08-06T05:26:28;29.13;;;17.83;;
28766;SDS011;15921;52.034;20.650;2023-08-06T05:28:54;25.83;;;17.83;;
28766;SDS011;15921;52.034;20.650;2023-08-06T05:31:19;27.67;;;17.00;;
28766;SDS011;15921;52.034;20.650;2023-08-06T05:33:45;21.67;;;15.20;;
28766;SDS011;15921;52.034;20.650;2023-08-06T05:36:11;23.90;;;15.20;;
28766;SDS011;15921;52.034;20.650;2023-08-06T05:38:36;20.27;;;14.90;;
28766;SDS011;15921;52.034;20.650;2023-08-06T05:41:02;23.63;;;16.15;;
28766;SDS011;15921;52.034;20.650;2023-08-06T05:43:28;21.48;;;14.70;;
28766;SDS011;15921;52.034;20.650;2023-08-06T05:45:55;23.40;;;13.43;;
28766;SDS011;15921;52.034;20.650;2023-08-06T05:48:21;21.73;;;15.23;;
28766;SDS011;15921;52.034;20.650;2023-08-06T05:50:49;19.60;;;14.15;;
28766;SDS011;15921;52.034;20.650;2023-08-06T05:53:17;18.65;;;13.73;;
28766;SDS011;15921;52.034;20.650;2023-08-06T05:55:43;22.23;;;15.68;;
28766;SDS011;15921;52.034;20.650;2023-08-06T05:58:09;24.42;;;15.88;;
28766;SDS011;15921;52.034;20.650;2023-08-06T06:00:35;23.90;;;14.52;;
28766;SDS011;15921;52.034;20.650;2023-08-06T06:03:01;20.77;;;16.10;;
28766;SDS011;15921;52.034;20.650;2023-08-06T06:05:27;25.75;;;15.52;;
28766;SDS011;15921;52.034;20.650;2023-08-06T06:07:53;22.52;;;13.80;;
28766;SDS011;15921;52.034;20.650;2023-08-06T06:10:19;21.90;;;16.13;;
28766;SDS011;15921;52.034;20.650;2023-08-06T06:12:44;23.85;;;15.95;;
28766;SDS011;15921;52.034;20.650;2023-08-06T06:15:10;26.88;;;16.00;;
28766;SDS011;15921;52.034;20.650;2023-08-06T06:17:36;21.40;;;16.08;;
28766;SDS011;15921;52.034;20.650;2023-08-06T06:20:02;20.67;;;16.38;;
28766;SDS011;15921;52.034;20.650;2023-08-06T06:22:29;27.48;;;17.65;;
28766;SDS011;15921;52.034;20.650;2023-08-06T06:24:55;27.15;;;18.92;;
28766;SDS011;15921;52.034;20.650;2023-08-06T06:27:20;28.45;;;16.73;;
28766;SDS011;15921;52.034;20.650;2023-08-06T06:29:46;17.30;;;14.82;;
28766;SDS011;15921;52.034;20.650;2023-08-06T06:32:12;20.90;;;16.33;;
28766;SDS011;15921;52.034;20.650;2023-08-06T06:34:37;18.98;;;15.63;;
28766;SDS011;15921;52.034;20.650;2023-08-06T06:37:03;20.80;;;15.82;;
28766;SDS011;15921;52.034;20.650;2023-08-06T06:39:29;19.20;;;14.07;;
28766;SDS011;15921;52.034;20.650;2023-08-06T06:41:55;20.65;;;15.43;;
28766;SDS011;15921;52.034;20.650;2023-08-06T06:44:20;24.02;;;16.58;;
28766;SDS011;15921;52.034;20.650;2023-08-06T06:46:46;21.30;;;14.90;;
28766;SDS011;15921;52.034;20.650;2023-08-06T06:49:12;18.63;;;15.13;;
28766;SDS011;15921;52.034;20.650;2023-08-06T06:51:37;23.58;;;16.65;;
28766;SDS011;15921;52.034;20.650;2023-08-06T06:54:03;22.10;;;13.70;;
28766;SDS011;15921;52.034;20.650;2023-08-06T06:56:29;22.98;;;14.88;;
28766;SDS011;15921;52.034;20.650;2023-08-06T06:58:54;23.58;;;17.17;;
28766;SDS011;15921;52.034;20.650;2023-08-06T07:01:20;23.50;;;19.00;;
28766;SDS011;15921;52.034;20.650;2023-08-06T07:03:46;23.48;;;18.42;;
28766;SDS011;15921;52.034;20.650;2023-08-06T07:06:11;23.67;;;16.73;;
28766;SDS011;15921;52.034;20.650;2023-08-06T07:08:37;21.65;;;17.88;;
28766;SDS011;15921;52.034;20.650;2023-08-06T07:11:04;25.67;;;16.38;;
28766;SDS011;15921;52.034;20.650;2023-08-06T07:13:31;21.45;;;15.93;;
28766;SDS011;15921;52.034;20.650;2023-08-06T07:15:57;18.67;;;15.18;;
28766;SDS011;15921;52.034;20.650;2023-08-06T07:18:23;24.92;;;17.77;;
28766;SDS011;15921;52.034;20.650;2023-08-06T07:20:52;22.42;;;17.08;;
28766;SDS011;15921;52.034;20.650;2023-08-06T07:23:20;29.20;;;16.60;;
28766;SDS011;15921;52.034;20.650;2023-08-06T07:25:47;21.27;;;15.15;;
28766;SDS011;15921;52.034;20.650;2023-08-06T07:28:13;22.98;;;16.10;;
28766;SDS011;15921;52.034;20.650;2023-08-06T07:30:40;20.27;;;16.20;;
28766;SDS011;15921;52.034;20.650;2023-08-06T07:33:06;19.63;;;15.40;;
28766;SDS011;15921;52.034;20.650;2023-08-06T07:35:32;20.65;;;16.13;;
28766;SDS011;15921;52.034;20.650;2023-08-06T07:37:58;18.67;;;16.67;;
28766;SDS011;15921;52.034;20.650;2023-08-06T07:40:24;22.30;;;16.55;;
28766;SDS011;15921;52.034;20.650;2023-08-06T07:42:50;20.88;;;14.48;;
28766;SDS011;15921;52.034;20.650;2023-08-06T07:45:16;18.00;;;15.40;;
28766;SDS011;15921;52.034;20.650;2023-08-06T07:47:41;18.70;;;15.35;;
28766;SDS011;15921;52.034;20.650;2023-08-06T07:50:08;22.15;;;14.70;;
28766;SDS011;15921;52.034;20.650;2023-08-06T07:52:34;18.25;;;14.90;;
28766;SDS011;15921;52.034;20.650;2023-08-06T07:55:00;29.23;;;14.88;;
28766;SDS011;15921;52.034;20.650;2023-08-06T07:57:30;18.05;;;14.45;;
28766;SDS011;15921;52.034;20.650;2023-08-06T07:59:56;22.35;;;13.93;;
28766;SDS011;15921;52.034;20.650;2023-08-06T08:02:21;18.10;;;14.18;;
28766;SDS011;15921;52.034;20.650;2023-08-06T08:04:47;18.17;;;13.55;;
28766;SDS011;15921;52.034;20.650;2023-08-06T08:07:13;16.45;;;12.27;;
28766;SDS011;15921;52.034;20.650;2023-08-06T08:09:39;20.40;;;14.07;;
28766;SDS011;15921;52.034;20.650;2023-08-06T08:12:04;18.05;;;14.15;;
28766;SDS011;15921;52.034;20.650;2023-08-06T08:14:30;21.80;;;13.68;;
28766;SDS011;15921;52.034;20.650;2023-08-06T08:17:01;20.80;;;12.07;;
28766;SDS011;15921;52.034;20.650;2023-08-06T08:19:27;15.27;;;13.25;;
28766;SDS011;15921;52.034;20.650;2023-08-06T08:21:54;15.55;;;13.35;;
28766;SDS011;15921;52.034;20.650;2023-08-06T08:24:20;20.33;;;14.70;;
28766;SDS011;15921;52.034;20.650;2023-08-06T08:26:48;17.17;;;12.25;;
28766;SDS011;15921;52.034;20.650;2023-08-06T08:29:15;20.88;;;13.50;;
28766;SDS011;15921;52.034;20.650;2023-08-06T08:31:40;22.70;;;14.50;;
28766;SDS011;15921;52.034;20.650;2023-08-06T08:34:06;19.10;;;13.55;;
28766;SDS011;15921;52.034;20.650;2023-08-06T08:36:31;19.30;;;13.60;;
28766;SDS011;15921;52.034;20.650;2023-08-06T08:38:57;16.42;;;12.50;;
28766;SDS011;15921;52.034;20.650;2023-08-06T08:41:23;20.08;;;14.13;;
28766;SDS011;15921;52.034;20.650;2023-08-06T08:43:49;23.08;;;14.57;;
28766;SDS011;15921;52.034;20.650;2023-08-06T08:46:19;19.58;;;13.05;;
28766;SDS011;15921;52.034;20.650;2023-08-06T08:48:45;23.50;;;13.15;;
28766;SDS011;15921;52.034;20.650;2023-08-06T08:51:11;19.65;;;14.02;;
28766;SDS011;15921;52.034;20.650;2023-08-06T08:53:38;15.57;;;13.55;;
28766;SDS011;15921;52.034;20.650;2023-08-06T08:56:04;13.40;;;12.00;;
28766;SDS011;15921;52.034;20.650;2023-08-06T08:58:30;18.42;;;12.38;;
28766;SDS011;15921;52.034;20.650;2023-08-06T09:01:01;22.25;;;11.68;;
28766;SDS011;15921;52.034;20.650;2023-08-06T09:03:28;16.95;;;12.70;;
28766;SDS011;15921;52.034;20.650;2023-08-06T09:05:54;21.80;;;13.60;;
28766;SDS011;15921;52.034;20.650;2023-08-06T09:08:24;14.88;;;11.95;;
28766;SDS011;15921;52.034;20.650;2023-08-06T09:10:56;15.93;;;13.00;;
28766;SDS011;15921;52.034;20.650;2023-08-06T09:13:22;18.98;;;11.27;;
28766;SDS011;15921;52.034;20.650;2023-08-06T09:15:48;21.50;;;12.60;;
28766;SDS011;15921;52.034;20.650;2023-08-06T09:18:24;14.38;;;11.13;;
28766;SDS011;15921;52.034;20.650;2023-08-06T09:20:54;18.70;;;12.13;;
28766;SDS011;15921;52.034;20.650;2023-08-06T09:23:21;23.35;;;12.52;;
28766;SDS011;15921;52.034;20.650;2023-08-06T09:25:54;21.38;;;12.15;;
28766;SDS011;15921;52.034;20.650;2023-08-06T09:28:20;18.25;;;10.90;;
28766;SDS011;15921;52.034;20.650;2023-08-06T09:30:46;17.80;;;12.52;;
28766;SDS011;15921;52.034;20.650;2023-08-06T09:33:14;16.30;;;11.18;;
28766;SDS011;15921;52.034;20.650;2023-08-06T09:35:45;22.30;;;12.13;;
28766;SDS011;15921;52.034;20.650;2023-08-06T09:38:11;12.38;;;10.48;;
28766;SDS011;15921;52.034;20.650;2023-08-06T09:40:37;11.93;;;10.05;;
28766;SDS011;15921;52.034;20.650;2023-08-06T09:43:04;17.48;;;11.60;;
28766;SDS011;15921;52.034;20.650;2023-08-06T09:45:31;12.65;;;10.45;;
28766;SDS011;15921;52.034;20.650;2023-08-06T09:47:59;14.80;;;10.82;;
28766;SDS011;15921;52.034;20.650;2023-08-06T09:50:28;15.25;;;10.45;;
28766;SDS011;15921;52.034;20.650;2023-08-06T09:52:56;19.48;;;11.60;;
28766;SDS011;15921;52.034;20.650;2023-08-06T09:55:23;11.82;;;10.40;;
28766;SDS011;15921;52.034;20.650;2023-08-06T09:57:51;15.13;;;11.15;;
28766;SDS011;15921;52.034;20.650;2023-08-06T10:00:17;12.85;;;10.68;;
28766;SDS011;15921;52.034;20.650;2023-08-06T10:02:43;11.77;;;9.23;;
28766;SDS011;15921;52.034;20.650;2023-08-06T10:05:10;15.27;;;10.15;;
28766;SDS011;15921;52.034;20.650;2023-08-06T10:07:36;12.73;;;9.88;;
28766;SDS011;15921;52.034;20.650;2023-08-06T10:10:04;20.73;;;10.07;;
28766;SDS011;15921;52.034;20.650;2023-08-06T10:12:32;10.85;;;8.63;;
28766;SDS011;15921;52.034;20.650;2023-08-06T10:15:08;14.95;;;8.43;;
28766;SDS011;15921;52.034;20.650;2023-08-06T10:17:36;16.45;;;8.57;;
28766;SDS011;15921;52.034;20.650;2023-08-06T10:20:04;8.88;;;7.97;;
28766;SDS011;15921;52.034;20.650;2023-08-06T10:22:32;19.15;;;8.40;;
28766;SDS011;15921;52.034;20.650;2023-08-06T10:24:58;13.20;;;7.50;;
28766;SDS011;15921;52.034;20.650;2023-08-06T10:27:33;9.63;;;8.00;;
28766;SDS011;15921;52.034;20.650;2023-08-06T10:32:55;14.35;;;8.55;;
28766;SDS011;15921;52.034;20.650;2023-08-06T10:35:29;12.25;;;9.68;;
28766;SDS011;15921;52.034;20.650;2023-08-06T10:37:57;11.75;;;9.07;;
28766;SDS011;15921;52.034;20.650;2023-08-06T10:40:24;14.25;;;9.95;;
28766;SDS011;15921;52.034;20.650;2023-08-06T10:42:51;12.57;;;10.13;;
28766;SDS011;15921;52.034;20.650;2023-08-06T10:45:17;15.60;;;10.93;;
28766;SDS011;15921;52.034;20.650;2023-08-06T10:47:44;12.85;;;10.63;;
28766;SDS011;15921;52.034;20.650;2023-08-06T10:50:14;16.35;;;10.55;;
28766;SDS011;15921;52.034;20.650;2023-08-06T10:52:42;16.33;;;9.60;;
28766;SDS011;15921;52.034;20.650;2023-08-06T10:55:08;12.55;;;9.80;;
28766;SDS011;15921;52.034;20.650;2023-08-06T10:57:35;12.25;;;9.05;;
28766;SDS011;15921;52.034;20.650;2023-08-06T11:00:01;14.20;;;10.20;;
28766;SDS011;15921;52.034;20.650;2023-08-06T11:02:29;13.38;;;9.55;;
28766;SDS011;15921;52.034;20.650;2023-08-06T11:05:04;10.48;;;9.38;;
28766;SDS011;15921;52.034;20.650;2023-08-06T11:07:33;12.35;;;9.30;;
28766;SDS011;15921;52.034;20.650;2023-08-06T11:10:05;12.07;;;9.25;;
28766;SDS011;15921;52.034;20.650;2023-08-06T11:12:33;14.63;;;9.23;;
28766;SDS011;15921;52.034;20.650;2023-08-06T11:14:59;12.88;;;9.70;;
28766;SDS011;15921;52.034;20.650;2023-08-06T11:17:29;12.52;;;7.65;;
28766;SDS011;15921;52.034;20.650;2023-08-06T11:20:00;12.80;;;7.43;;
28766;SDS011;15921;52.034;20.650;2023-08-06T11:22:28;11.48;;;7.82;;
28766;SDS011;15921;52.034;20.650;2023-08-06T11:24:53;12.88;;;7.50;;
28766;SDS011;15921;52.034;20.650;2023-08-06T11:27:20;11.80;;;8.20;;
28766;SDS011;15921;52.034;20.650;2023-08-06T11:29:46;10.60;;;7.45;;
28766;SDS011;15921;52.034;20.650;2023-08-06T11:32:11;7.95;;;6.95;;
28766;SDS011;15921;52.034;20.650;2023-08-06T11:34:38;13.32;;;7.10;;
28766;SDS011;15921;52.034;20.650;2023-08-06T11:37:04;9.05;;;6.88;;
28766;SDS011;15921;52.034;20.650;2023-08-06T11:39:34;11.10;;;6.63;;
28766;SDS011;15921;52.034;20.650;2023-08-06T11:42:02;13.10;;;6.53;;
28766;SDS011;15921;52.034;20.650;2023-08-06T11:44:30;20.60;;;6.88;;
28766;SDS011;15921;52.034;20.650;2023-08-06T11:46:59;8.15;;;5.88;;
28766;SDS011;15921;52.034;20.650;2023-08-06T11:52:09;8.77;;;6.35;;
28766;SDS011;15921;52.034;20.650;2023-08-06T11:54:36;7.43;;;5.38;;
28766;SDS011;15921;52.034;20.650;2023-08-06T11:57:07;7.00;;;5.70;;
28766;SDS011;15921;52.034;20.650;2023-08-06T11:59:33;14.38;;;6.93;;
28766;SDS011;15921;52.034;20.650;2023-08-06T12:02:03;9.45;;;6.43;;
28766;SDS011;15921;52.034;20.650;2023-08-06T12:04:50;11.13;;;6.10;;
28766;SDS011;15921;52.034;20.650;2023-08-06T12:07:28;8.50;;;6.20;;
28766;SDS011;15921;52.034;20.650;2023-08-06T12:09:55;6.15;;;5.55;;
28766;SDS011;15921;52.034;20.650;2023-08-06T12:12:21;9.25;;;6.40;;
28766;SDS011;15921;52.034;20.650;2023-08-06T12:14:46;9.30;;;6.53;;
28766;SDS011;15921;52.034;20.650;2023-08-06T12:17:12;8.75;;;6.43;;
28766;SDS011;15921;52.034;20.650;2023-08-06T12:19:38;13.48;;;5.97;;
28766;SDS011;15921;52.034;20.650;2023-08-06T12:22:03;6.22;;;5.63;;
28766;SDS011;15921;52.034;20.650;2023-08-06T12:24:29;8.20;;;5.80;;
28766;SDS011;15921;52.034;20.650;2023-08-06T12:26:57;9.02;;;6.47;;
28766;SDS011;15921;52.034;20.650;2023-08-06T12:29:23;6.72;;;6.00;;
28766;SDS011;15921;52.034;20.650;2023-08-06T12:31:50;4.20;;;3.63;;
28766;SDS011;15921;52.034;20.650;2023-08-06T12:34:16;7.45;;;2.80;;
28766;SDS011;15921;52.034;20.650;2023-08-06T12:36:41;5.35;;;3.13;;
28766;SDS011;15921;52.034;20.650;2023-08-06T12:39:07;3.80;;;2.70;;
28766;SDS011;15921;52.034;20.650;2023-08-06T12:41:33;11.73;;;3.53;;
28766;SDS011;15921;52.034;20.650;2023-08-06T12:43:58;6.03;;;3.88;;
28766;SDS011;15921;52.034;20.650;2023-08-06T12:46:24;7.25;;;3.70;;
28766;SDS011;15921;52.034;20.650;2023-08-06T12:48:50;9.93;;;4.22;;
28766;SDS011;15921;52.034;20.650;2023-08-06T12:51:15;8.05;;;4.93;;
28766;SDS011;15921;52.034;20.650;2023-08-06T12:53:41;9.23;;;5.50;;
28766;SDS011;15921;52.034;20.650;2023-08-06T12:56:07;8.00;;;5.60;;
28766;SDS011;15921;52.034;20.650;2023-08-06T12:58:32;9.82;;;5.93;;
28766;SDS011;15921;52.034;20.650;2023-08-06T13:00:58;7.90;;;6.25;;
28766;SDS011;15921;52.034;20.650;2023-08-06T13:03:24;6.90;;;5.43;;
28766;SDS011;15921;52.034;20.650;2023-08-06T13:05:50;7.15;;;5.30;;
28766;SDS011;15921;52.034;20.650;2023-08-06T13:08:16;9.30;;;5.40;;
28766;SDS011;15921;52.034;20.650;2023-08-06T13:10:42;5.50;;;4.85;;
28766;SDS011;15921;52.034;20.650;2023-08-06T13:13:08;6.90;;;4.97;;
28766;SDS011;15921;52.034;20.650;2023-08-06T13:15:35;8.63;;;4.53;;
28766;SDS011;15921;52.034;20.650;2023-08-06T13:18:01;6.07;;;4.45;;
28766;SDS011;15921;52.034;20.650;2023-08-06T13:20:27;7.68;;;4.60;;
28766;SDS011;15921;52.034;20.650;2023-08-06T13:22:55;8.88;;;4.70;;
28766;SDS011;15921;52.034;20.650;2023-08-06T13:25:20;6.03;;;4.75;;
28766;SDS011;15921;52.034;20.650;2023-08-06T13:27:46;11.80;;;4.40;;
28766;SDS011;15921;52.034;20.650;2023-08-06T13:30:12;5.88;;;4.43;;
28766;SDS011;15921;52.034;20.650;2023-08-06T13:32:38;7.25;;;4.38;;
28766;SDS011;15921;52.034;20.650;2023-08-06T13:35:04;8.00;;;4.40;;
28766;SDS011;15921;52.034;20.650;2023-08-06T13:37:30;5.70;;;4.25;;
28766;SDS011;15921;52.034;20.650;2023-08-06T13:39:56;7.47;;;4.50;;
28766;SDS011;15921;52.034;20.650;2023-08-06T13:42:22;10.75;;;4.38;;
28766;SDS011;15921;52.034;20.650;2023-08-06T13:44:47;7.75;;;4.75;;
28766;SDS011;15921;52.034;20.650;2023-08-06T13:47:13;7.78;;;4.70;;
28766;SDS011;15921;52.034;20.650;2023-08-06T13:49:39;11.00;;;4.78;;
28766;SDS011;15921;52.034;20.650;2023-08-06T13:52:05;9.90;;;5.72;;
28766;SDS011;15921;52.034;20.650;2023-08-06T13:54:30;5.15;;;4.65;;
28766;SDS011;15921;52.034;20.650;2023-08-06T13:56:56;6.95;;;5.70;;
28766;SDS011;15921;52.034;20.650;2023-08-06T13:59:22;13.95;;;5.50;;
28766;SDS011;15921;52.034;20.650;2023-08-06T14:01:49;5.75;;;3.40;;
28766;SDS011;15921;52.034;20.650;2023-08-06T14:04:15;4.75;;;2.92;;
28766;SDS011;15921;52.034;20.650;2023-08-06T14:06:41;3.67;;;2.80;;
28766;SDS011;15921;52.034;20.650;2023-08-06T14:09:07;4.07;;;2.78;;
28766;SDS011;15921;52.034;20.650;2023-08-06T14:11:33;7.68;;;2.85;;
28766;SDS011;15921;52.034;20.650;2023-08-06T14:13:59;2.55;;;2.35;;
28766;SDS011;15921;52.034;20.650;2023-08-06T14:16:25;2.78;;;2.35;;
28766;SDS011;15921;52.034;20.650;2023-08-06T14:18:51;2.83;;;2.10;;
28766;SDS011;15921;52.034;20.650;2023-08-06T14:21:16;2.38;;;2.13;;
28766;SDS011;15921;52.034;20.650;2023-08-06T14:23:42;2.38;;;1.95;;
28766;SDS011;15921;52.034;20.650;2023-08-06T14:26:08;2.63;;;2.25;;
28766;SDS011;15921;52.034;20.650;2023-08-06T14:28:35;3.70;;;2.22;;
28766;SDS011;15921;52.034;20.650;2023-08-06T14:31:01;3.25;;;1.90;;
28766;SDS011;15921;52.034;20.650;2023-08-06T14:33:27;2.42;;;1.73;;
28766;SDS011;15921;52.034;20.650;2023-08-06T14:35:52;3.20;;;1.20;;
28766;SDS011;15921;52.034;20.650;2023-08-06T14:38:18;2.97;;;1.30;;
28766;SDS011;15921;52.034;20.650;2023-08-06T14:40:44;1.20;;;1.10;;
28766;SDS011;15921;52.034;20.650;2023-08-06T14:43:10;1.15;;;0.90;;
28766;SDS011;15921;52.034;20.650;2023-08-06T14:45:38;1.30;;;0.90;;
28766;SDS011;15921;52.034;20.650;2023-08-06T14:48:04;0.93;;;0.70;;
28766;SDS011;15921;52.034;20.650;2023-08-06T14:50:31;3.53;;;0.98;;
28766;SDS011;15921;52.034;20.650;2023-08-06T14:52:56;2.50;;;0.90;;
28766;SDS011;15921;52.034;20.650;2023-08-06T14:55:25;0.68;;;0.68;;
28766;SDS011;15921;52.034;20.650;2023-08-06T14:57:51;2.75;;;0.57;;
28766;SDS011;15921;52.034;20.650;2023-08-06T15:00:18;1.15;;;0.40;;
28766;SDS011;15921;52.034;20.650;2023-08-06T15:02:44;1.75;;;0.63;;
28766;SDS011;15921;52.034;20.650;2023-08-06T15:05:10;2.33;;;0.50;;
28766;SDS011;15921;52.034;20.650;2023-08-06T15:07:35;1.52;;;0.60;;
28766;SDS011;15921;52.034;20.650;2023-08-06T15:10:04;1.08;;;0.50;;
28766;SDS011;15921;52.034;20.650;2023-08-06T15:12:30;0.30;;;0.30;;